sensor_id;sensor_type;location;lat;lon;timestamp;pressure;altitude;pressure_sealevel;temperature;humidity
76011;BME280;64701;43.536;1.478;2023-11-21T00:01:57;99796.84;;;10.76;100.00
76011;BME280;64701;43.536;1.478;2023-11-21T00:04:22;99795.84;;;10.77;100.00
76011;BME280;64701;43.536;1.478;2023-11-21T00:06:47;99797.19;;;10.73;100.00
76011;BME280;64701;43.536;1.478;2023-11-21T00:09:13;99798.97;;;10.66;100.00
76011;BME280;64701;43.536;1.478;2023-11-21T00:11:40;99791.09;;;10.73;100.00
76011;BME280;64701;43.536;1.478;2023-11-21T00:14:06;99796.19;;;10.74;100.00
76011;BME280;64701;43.536;1.478;2023-11-21T00:16:31;99800.50;;;10.75;100.00
76011;BME280;64701;43.536;1.478;2023-11-21T00:18:56;99795.63;;;10.79;100.00
76011;BME280;64701;43.536;1.478;2023-11-21T00:21:21;99795.63;;;10.79;100.00
76011;BME280;64701;43.536;1.478;2023-11-21T00:23:46;99798.09;;;10.80;100.00
76011;BME280;64701;43.536;1.478;2023-11-21T00:26:12;99801.59;;;10.81;100.00
76011;BME280;64701;43.536;1.478;2023-11-21T00:28:37;99800.56;;;10.82;100.00
76011;BME280;64701;43.536;1.478;2023-11-21T00:31:02;99796.47;;;10.79;100.00
76011;BME280;64701;43.536;1.478;2023-11-21T00:33:29;99786.91;;;10.78;100.00
76011;BME280;64701;43.536;1.478;2023-11-21T00:35:55;99780.56;;;10.79;100.00
76011;BME280;64701;43.536;1.478;2023-11-21T00:38:20;99785.88;;;10.79;100.00
76011;BME280;64701;43.536;1.478;2023-11-21T00:40:46;99780.97;;;10.76;100.00
76011;BME280;64701;43.536;1.478;2023-11-21T00:43:11;99776.03;;;10.73;100.00
76011;BME280;64701;43.536;1.478;2023-11-21T00:45:36;99780.97;;;10.76;100.00
76011;BME280;64701;43.536;1.478;2023-11-21T00:48:02;99772.19;;;10.76;100.00
76011;BME280;64701;43.536;1.478;2023-11-21T00:50:27;99774.66;;;10.77;100.00
76011;BME280;64701;43.536;1.478;2023-11-21T00:52:52;99774.84;;;10.76;100.00
76011;BME280;64701;43.536;1.478;2023-11-21T00:55:18;99773.19;;;10.75;100.00
76011;BME280;64701;43.536;1.478;2023-11-21T00:57:43;99774.44;;;10.79;100.00
76011;BME280;64701;43.536;1.478;2023-11-21T01:00:08;99771.63;;;10.80;100.00
76011;BME280;64701;43.536;1.478;2023-11-21T01:02:41;99776.31;;;10.78;100.00
76011;BME280;64701;43.536;1.478;2023-11-21T01:05:08;99770.38;;;10.76;100.00
76011;BME280;64701;43.536;1.478;2023-11-21T01:07:33;99767.06;;;10.74;100.00
76011;BME280;64701;43.536;1.478;2023-11-21T01:09:59;99762.59;;;10.75;100.00
76011;BME280;64701;43.536;1.478;2023-11-21T01:12:24;99764.88;;;10.78;100.00
76011;BME280;64701;43.536;1.478;2023-11-21T01:14:50;99762.41;;;10.76;100.00
76011;BME280;64701;43.536;1.478;2023-11-21T01:17:15;99762.25;;;10.78;100.00
76011;BME280;64701;43.536;1.478;2023-11-21T01:19:41;99760.41;;;10.78;100.00
76011;BME280;64701;43.536;1.478;2023-11-21T01:22:07;99762.25;;;10.78;100.00
76011;BME280;64701;43.536;1.478;2023-11-21T01:24:32;99758.56;;;10.79;100.00
76011;BME280;64701;43.536;1.478;2023-11-21T01:26:57;99757.38;;;10.81;100.00
76011;BME280;64701;43.536;1.478;2023-11-21T01:29:22;99742.88;;;10.77;100.00
76011;BME280;64701;43.536;1.478;2023-11-21T01:31:48;99744.31;;;10.80;100.00
76011;BME280;64701;43.536;1.478;2023-11-21T01:34:13;99740.59;;;10.74;100.00
76011;BME280;64701;43.536;1.478;2023-11-21T01:36:39;99743.22;;;10.74;100.00
76011;BME280;64701;43.536;1.478;2023-11-21T01:39:04;99743.16;;;10.68;100.00
76011;BME280;64701;43.536;1.478;2023-11-21T01:41:33;99741.72;;;10.65;100.00
76011;BME280;64701;43.536;1.478;2023-11-21T01:43:59;99737.69;;;10.69;100.00
76011;BME280;64701;43.536;1.478;2023-11-21T01:46:25;99731.13;;;10.65;100.00
76011;BME280;64701;43.536;1.478;2023-11-21T01:48:50;99724.19;;;10.64;100.00
76011;BME280;64701;43.536;1.478;2023-11-21T01:51:15;99728.00;;;10.61;100.00
76011;BME280;64701;43.536;1.478;2023-11-21T01:53:41;99726.00;;;10.63;100.00
76011;BME280;64701;43.536;1.478;2023-11-21T01:56:06;99735.59;;;10.64;100.00
76011;BME280;64701;43.536;1.478;2023-11-21T01:58:33;99723.53;;;10.62;100.00
76011;BME280;64701;43.536;1.478;2023-11-21T02:00:58;99729.84;;;10.61;100.00
76011;BME280;64701;43.536;1.478;2023-11-21T02:03:24;99729.84;;;10.61;100.00
76011;BME280;64701;43.536;1.478;2023-11-21T02:05:49;99719.63;;;10.58;100.00
76011;BME280;64701;43.536;1.478;2023-11-21T02:08:14;99716.06;;;10.66;100.00
76011;BME280;64701;43.536;1.478;2023-11-21T02:10:39;99711.19;;;10.69;100.00
76011;BME280;64701;43.536;1.478;2023-11-21T02:13:05;99704.25;;;10.68;100.00
76011;BME280;64701;43.536;1.478;2023-11-21T02:15:31;99698.88;;;10.61;100.00
76011;BME280;64701;43.536;1.478;2023-11-21T02:17:56;99703.00;;;10.64;100.00
76011;BME280;64701;43.536;1.478;2023-11-21T02:20:23;99702.94;;;10.57;100.00
76011;BME280;64701;43.536;1.478;2023-11-21T02:22:52;99698.63;;;10.56;100.00
76011;BME280;64701;43.536;1.478;2023-11-21T02:25:28;99693.72;;;10.53;100.00
76011;BME280;64701;43.536;1.478;2023-11-21T02:27:54;99694.34;;;10.55;100.00
76011;BME280;64701;43.536;1.478;2023-11-21T02:30:20;99692.91;;;10.53;100.00
76011;BME280;64701;43.536;1.478;2023-11-21T02:32:46;99684.81;;;10.40;100.00
76011;BME280;64701;43.536;1.478;2023-11-21T02:35:11;99676.94;;;10.46;100.00
76011;BME280;64701;43.536;1.478;2023-11-21T02:37:37;99682.81;;;10.42;100.00
76011;BME280;64701;43.536;1.478;2023-11-21T02:40:03;99678.13;;;10.44;100.00
76011;BME280;64701;43.536;1.478;2023-11-21T02:42:31;99671.84;;;10.45;100.00
76011;BME280;64701;43.536;1.478;2023-11-21T02:44:56;99669.75;;;10.40;100.00
76011;BME280;64701;43.536;1.478;2023-11-21T02:47:22;99669.75;;;10.40;100.00
76011;BME280;64701;43.536;1.478;2023-11-21T02:49:47;99664.28;;;10.42;100.00
76011;BME280;64701;43.536;1.478;2023-11-21T02:52:12;99658.78;;;10.43;100.00
76011;BME280;64701;43.536;1.478;2023-11-21T02:54:37;99667.94;;;10.41;100.00
76011;BME280;64701;43.536;1.478;2023-11-21T02:57:03;99659.09;;;10.34;100.00
76011;BME280;64701;43.536;1.478;2023-11-21T02:59:28;99660.34;;;10.38;100.00
76011;BME280;64701;43.536;1.478;2023-11-21T03:01:53;99652.16;;;10.33;100.00
76011;BME280;64701;43.536;1.478;2023-11-21T03:04:18;99650.16;;;10.35;100.00
76011;BME280;64701;43.536;1.478;2023-11-21T03:06:44;99641.94;;;10.30;100.00
76011;BME280;64701;43.536;1.478;2023-11-21T03:09:10;99647.84;;;10.32;100.00
76011;BME280;64701;43.536;1.478;2023-11-21T03:11:37;99645.22;;;10.32;100.00
76011;BME280;64701;43.536;1.478;2023-11-21T03:14:02;99644.69;;;10.21;100.00
76011;BME280;64701;43.536;1.478;2023-11-21T03:16:28;99649.16;;;10.21;100.00
76011;BME280;64701;43.536;1.478;2023-11-21T03:18:54;99638.97;;;10.18;100.00
76011;BME280;64701;43.536;1.478;2023-11-21T03:21:19;99642.63;;;10.17;100.00
76011;BME280;64701;43.536;1.478;2023-11-21T03:23:44;99638.41;;;10.22;100.00
76011;BME280;64701;43.536;1.478;2023-11-21T03:26:13;99641.06;;;10.22;100.00
76011;BME280;64701;43.536;1.478;2023-11-21T03:28:38;99634.75;;;10.23;100.00
76011;BME280;64701;43.536;1.478;2023-11-21T03:31:04;99638.00;;;10.26;100.00
76011;BME280;64701;43.536;1.478;2023-11-21T03:33:29;99626.25;;;10.28;100.00
76011;BME280;64701;43.536;1.478;2023-11-21T03:35:54;99628.91;;;10.28;100.00
76011;BME280;64701;43.536;1.478;2023-11-21T03:38:20;99632.19;;;10.30;100.00
76011;BME280;64701;43.536;1.478;2023-11-21T03:40:45;99626.44;;;10.27;100.00
76011;BME280;64701;43.536;1.478;2023-11-21T03:43:10;99629.97;;;10.34;100.00
76011;BME280;64701;43.536;1.478;2023-11-21T03:45:36;99628.31;;;10.33;100.00
76011;BME280;64701;43.536;1.478;2023-11-21T03:48:01;99628.31;;;10.33;100.00
76011;BME280;64701;43.536;1.478;2023-11-21T03:50:28;99628.97;;;10.35;100.00
76011;BME280;64701;43.536;1.478;2023-11-21T03:52:53;99632.25;;;10.37;100.00
76011;BME280;64701;43.536;1.478;2023-11-21T03:55:18;99629.78;;;10.35;100.00
76011;BME280;64701;43.536;1.478;2023-11-21T03:57:43;99625.75;;;10.39;100.00
76011;BME280;64701;43.536;1.478;2023-11-21T04:00:09;99632.25;;;10.37;100.00
76011;BME280;64701;43.536;1.478;2023-11-21T04:02:35;99629.72;;;10.29;100.00
76011;BME280;64701;43.536;1.478;2023-11-21T04:05:00;99626.50;;;10.33;100.00
76011;BME280;64701;43.536;1.478;2023-11-21T04:07:25;99622.22;;;10.32;100.00
76011;BME280;64701;43.536;1.478;2023-11-21T04:09:51;99622.97;;;10.26;100.00
76011;BME280;64701;43.536;1.478;2023-11-21T04:12:16;99619.50;;;10.26;100.00
76011;BME280;64701;43.536;1.478;2023-11-21T04:14:41;99621.78;;;10.29;100.00
76011;BME280;64701;43.536;1.478;2023-11-21T04:17:06;99618.31;;;10.28;100.00
76011;BME280;64701;43.536;1.478;2023-11-21T04:19:32;99613.03;;;10.28;100.00
76011;BME280;64701;43.536;1.478;2023-11-21T04:21:57;99612.59;;;10.25;100.00
76011;BME280;64701;43.536;1.478;2023-11-21T04:24:22;99613.94;;;10.20;100.00
76011;BME280;64701;43.536;1.478;2023-11-21T04:26:48;99610.69;;;10.18;100.00
76011;BME280;64701;43.536;1.478;2023-11-21T04:29:13;99606.41;;;10.17;100.00
76011;BME280;64701;43.536;1.478;2023-11-21T04:31:38;99604.75;;;10.16;100.00
76011;BME280;64701;43.536;1.478;2023-11-21T04:34:04;99600.59;;;10.14;100.00
76011;BME280;64701;43.536;1.478;2023-11-21T04:36:29;99597.28;;;10.05;100.00
76011;BME280;64701;43.536;1.478;2023-11-21T04:38:55;99600.91;;;10.04;100.00
76011;BME280;64701;43.536;1.478;2023-11-21T04:41:21;99601.09;;;10.03;100.00
76011;BME280;64701;43.536;1.478;2023-11-21T04:43:46;99596.56;;;9.97;100.00
76011;BME280;64701;43.536;1.478;2023-11-21T04:46:11;99600.41;;;9.94;100.00
76011;BME280;64701;43.536;1.478;2023-11-21T04:48:36;99596.72;;;9.95;100.00
76011;BME280;64701;43.536;1.478;2023-11-21T04:51:02;99593.72;;;9.98;100.00
76011;BME280;64701;43.536;1.478;2023-11-21T04:53:29;99595.81;;;10.03;100.00
76011;BME280;64701;43.536;1.478;2023-11-21T04:55:54;99593.53;;;10.00;100.00
76011;BME280;64701;43.536;1.478;2023-11-21T04:58:19;99594.16;;;10.02;100.00
76011;BME280;64701;43.536;1.478;2023-11-21T05:00:45;99587.25;;;10.01;100.00
76011;BME280;64701;43.536;1.478;2023-11-21T05:03:11;99589.44;;;9.97;100.00
76011;BME280;64701;43.536;1.478;2023-11-21T05:05:37;99587.78;;;9.96;100.00
76011;BME280;64701;43.536;1.478;2023-11-21T05:08:02;99576.59;;;9.94;100.00
76011;BME280;64701;43.536;1.478;2023-11-21T05:10:28;99577.22;;;9.96;100.00
76011;BME280;64701;43.536;1.478;2023-11-21T05:12:54;99583.50;;;9.95;100.00
76011;BME280;64701;43.536;1.478;2023-11-21T05:15:20;99589.06;;;10.00;100.00
76011;BME280;64701;43.536;1.478;2023-11-21T05:17:46;99583.41;;;10.03;100.00
76011;BME280;64701;43.536;1.478;2023-11-21T05:20:15;99579.75;;;10.04;100.00
76011;BME280;64701;43.536;1.478;2023-11-21T05:22:43;99581.97;;;10.01;100.00
76011;BME280;64701;43.536;1.478;2023-11-21T05:25:08;99578.09;;;10.03;100.00
76011;BME280;64701;43.536;1.478;2023-11-21T05:27:34;99580.00;;;10.09;100.00
76011;BME280;64701;43.536;1.478;2023-11-21T05:30:03;99581.84;;;10.09;100.00
76011;BME280;64701;43.536;1.478;2023-11-21T05:32:31;99579.66;;;10.12;100.00
76011;BME280;64701;43.536;1.478;2023-11-21T05:34:57;99582.91;;;10.14;100.00
76011;BME280;64701;43.536;1.478;2023-11-21T05:37:22;99581.19;;;10.21;100.00
76011;BME280;64701;43.536;1.478;2023-11-21T05:39:48;99584.00;;;10.20;100.00
76011;BME280;64701;43.536;1.478;2023-11-21T05:42:13;99581.09;;;10.15;100.00
76011;BME280;64701;43.536;1.478;2023-11-21T05:44:40;99577.09;;;10.19;100.00
76011;BME280;64701;43.536;1.478;2023-11-21T05:47:06;99574.25;;;10.20;100.00
76011;BME280;64701;43.536;1.478;2023-11-21T05:49:32;99581.59;;;10.18;100.00
76011;BME280;64701;43.536;1.478;2023-11-21T05:51:57;99578.13;;;10.18;100.00
76011;BME280;64701;43.536;1.478;2023-11-21T05:54:23;99578.28;;;10.16;100.00
76011;BME280;64701;43.536;1.478;2023-11-21T05:56:48;99581.25;;;10.13;100.00
76011;BME280;64701;43.536;1.478;2023-11-21T05:59:14;99579.66;;;10.12;100.00
76011;BME280;64701;43.536;1.478;2023-11-21T06:01:39;99573.72;;;10.10;100.00
76011;BME280;64701;43.536;1.478;2023-11-21T06:04:05;99574.97;;;10.14;100.00
76011;BME280;64701;43.536;1.478;2023-11-21T06:06:30;99573.16;;;10.15;100.00
76011;BME280;64701;43.536;1.478;2023-11-21T06:08:56;99578.28;;;10.16;100.00
76011;BME280;64701;43.536;1.478;2023-11-21T06:11:22;99573.91;;;10.23;100.00
76011;BME280;64701;43.536;1.478;2023-11-21T06:13:47;99573.91;;;10.23;100.00
76011;BME280;64701;43.536;1.478;2023-11-21T06:16:13;99572.59;;;10.19;100.00
76011;BME280;64701;43.536;1.478;2023-11-21T06:18:41;99571.50;;;10.14;100.00
76011;BME280;64701;43.536;1.478;2023-11-21T06:21:08;99575.66;;;10.16;100.00
76011;BME280;64701;43.536;1.478;2023-11-21T06:23:34;99576.28;;;10.18;100.00
76011;BME280;64701;43.536;1.478;2023-11-21T06:25:59;99575.91;;;10.21;100.00
76011;BME280;64701;43.536;1.478;2023-11-21T06:28:24;99582.28;;;10.12;100.00
76011;BME280;64701;43.536;1.478;2023-11-21T06:30:50;99568.03;;;10.13;100.00
76011;BME280;64701;43.536;1.478;2023-11-21T06:33:15;99574.97;;;10.14;100.00
76011;BME280;64701;43.536;1.478;2023-11-21T06:35:41;99568.03;;;10.13;100.00
76011;BME280;64701;43.536;1.478;2023-11-21T06:38:06;99574.97;;;10.14;100.00
76011;BME280;64701;43.536;1.478;2023-11-21T06:40:31;99565.22;;;10.15;100.00
76011;BME280;64701;43.536;1.478;2023-11-21T06:42:58;99571.00;;;10.18;100.00
76011;BME280;64701;43.536;1.478;2023-11-21T06:45:24;99576.47;;;10.17;100.00
76011;BME280;64701;43.536;1.478;2023-11-21T06:47:49;99586.47;;;10.21;100.00
76011;BME280;64701;43.536;1.478;2023-11-21T06:50:14;99568.59;;;10.23;100.00
76011;BME280;64701;43.536;1.478;2023-11-21T06:52:39;99583.91;;;10.28;100.00
76011;BME280;64701;43.536;1.478;2023-11-21T06:55:05;99581.69;;;10.32;100.00
76011;BME280;64701;43.536;1.478;2023-11-21T06:57:33;99591.03;;;10.28;100.00
76011;BME280;64701;43.536;1.478;2023-11-21T06:59:58;99583.91;;;10.28;100.00
76011;BME280;64701;43.536;1.478;2023-11-21T07:02:23;99580.50;;;10.34;100.00
76011;BME280;64701;43.536;1.478;2023-11-21T07:04:49;99586.16;;;10.31;100.00
76011;BME280;64701;43.536;1.478;2023-11-21T07:07:14;99580.09;;;10.31;100.00
76011;BME280;64701;43.536;1.478;2023-11-21T07:09:39;99584.97;;;10.34;100.00
76011;BME280;64701;43.536;1.478;2023-11-21T07:12:04;99582.75;;;10.37;100.00
76011;BME280;64701;43.536;1.478;2023-11-21T07:14:32;99586.63;;;10.35;100.00
76011;BME280;64701;43.536;1.478;2023-11-21T07:16:58;99583.34;;;10.33;100.00
76011;BME280;64701;43.536;1.478;2023-11-21T07:19:23;99586.44;;;10.36;100.00
76011;BME280;64701;43.536;1.478;2023-11-21T07:21:49;99578.94;;;10.40;100.00
76011;BME280;64701;43.536;1.478;2023-11-21T07:24:16;99586.22;;;10.38;100.00
76011;BME280;64701;43.536;1.478;2023-11-21T07:26:41;99592.91;;;10.34;100.00
76011;BME280;64701;43.536;1.478;2023-11-21T07:29:06;99604.16;;;10.36;100.00
76011;BME280;64701;43.536;1.478;2023-11-21T07:31:31;99602.13;;;10.38;100.00
76011;BME280;64701;43.536;1.478;2023-11-21T07:33:59;99608.69;;;10.42;100.00
76011;BME280;64701;43.536;1.478;2023-11-21T07:36:24;99605.47;;;10.46;100.00
76011;BME280;64701;43.536;1.478;2023-11-21T07:38:50;99610.31;;;10.43;100.00
76011;BME280;64701;43.536;1.478;2023-11-21T07:41:15;99615.59;;;10.43;100.00
76011;BME280;64701;43.536;1.478;2023-11-21T07:43:42;99619.53;;;10.47;100.00
76011;BME280;64701;43.536;1.478;2023-11-21T07:46:08;99618.06;;;10.44;100.00
76011;BME280;64701;43.536;1.478;2023-11-21T07:48:33;99622.94;;;10.41;100.00
76011;BME280;64701;43.536;1.478;2023-11-21T07:50:59;99621.69;;;10.37;100.00
76011;BME280;64701;43.536;1.478;2023-11-21T07:53:25;99618.25;;;10.43;100.00
76011;BME280;64701;43.536;1.478;2023-11-21T07:55:50;99628.22;;;10.41;100.00
76011;BME280;64701;43.536;1.478;2023-11-21T07:58:16;99629.03;;;10.41;100.00
76011;BME280;64701;43.536;1.478;2023-11-21T08:00:41;99631.13;;;10.46;100.00
76011;BME280;64701;43.536;1.478;2023-11-21T08:03:07;99631.56;;;10.49;100.00
76011;BME280;64701;43.536;1.478;2023-11-21T08:05:32;99632.00;;;10.53;100.00
76011;BME280;64701;43.536;1.478;2023-11-21T08:07:57;99640.56;;;10.55;100.00
76011;BME280;64701;43.536;1.478;2023-11-21T08:10:23;99646.50;;;10.57;100.00
76011;BME280;64701;43.536;1.478;2023-11-21T08:12:48;99642.47;;;10.61;100.00
76011;BME280;64701;43.536;1.478;2023-11-21T08:15:15;99651.63;;;10.58;100.00
76011;BME280;64701;43.536;1.478;2023-11-21T08:17:40;99646.31;;;10.58;100.00
76011;BME280;64701;43.536;1.478;2023-11-21T08:20:06;99659.38;;;10.60;100.00
76011;BME280;64701;43.536;1.478;2023-11-21T08:22:33;99649.22;;;10.63;100.00
76011;BME280;64701;43.536;1.478;2023-11-21T08:24:59;99655.34;;;10.64;100.00
76011;BME280;64701;43.536;1.478;2023-11-21T08:27:24;99659.06;;;10.70;100.00
76011;BME280;64701;43.536;1.478;2023-11-21T08:29:50;99660.53;;;10.72;100.00
76011;BME280;64701;43.536;1.478;2023-11-21T08:32:15;99654.66;;;10.77;100.00
76011;BME280;64701;43.536;1.478;2023-11-21T08:34:41;99656.47;;;10.76;100.00
76011;BME280;64701;43.536;1.478;2023-11-21T08:37:08;99655.25;;;10.79;100.00
76011;BME280;64701;43.536;1.478;2023-11-21T08:39:33;99656.72;;;10.81;100.00
76011;BME280;64701;43.536;1.478;2023-11-21T08:41:58;99650.19;;;10.77;100.00
76011;BME280;64701;43.536;1.478;2023-11-21T08:44:23;99651.66;;;10.86;100.00
76011;BME280;64701;43.536;1.478;2023-11-21T08:46:50;99654.97;;;10.88;100.00
76011;BME280;64701;43.536;1.478;2023-11-21T08:49:15;99649.28;;;10.91;100.00
76011;BME280;64701;43.536;1.478;2023-11-21T08:51:40;99647.44;;;10.92;100.00
76011;BME280;64701;43.536;1.478;2023-11-21T08:54:06;99651.75;;;10.93;100.00
76011;BME280;64701;43.536;1.478;2023-11-21T08:56:36;99651.97;;;10.98;100.00
76011;BME280;64701;43.536;1.478;2023-11-21T08:59:01;99651.03;;;11.05;100.00
76011;BME280;64701;43.536;1.478;2023-11-21T09:01:28;99643.09;;;11.05;100.00
76011;BME280;64701;43.536;1.478;2023-11-21T09:03:53;99643.09;;;11.05;100.00
76011;BME280;64701;43.536;1.478;2023-11-21T09:06:18;99645.09;;;11.03;100.00
76011;BME280;64701;43.536;1.478;2023-11-21T09:08:44;99645.56;;;11.07;100.00
76011;BME280;64701;43.536;1.478;2023-11-21T09:11:09;99653.28;;;11.09;100.00
76011;BME280;64701;43.536;1.478;2023-11-21T09:13:35;99651.91;;;11.13;100.00
76011;BME280;64701;43.536;1.478;2023-11-21T09:16:00;99649.25;;;11.13;100.00
76011;BME280;64701;43.536;1.478;2023-11-21T09:18:25;99657.63;;;11.16;100.00
76011;BME280;64701;43.536;1.478;2023-11-21T09:20:50;99658.59;;;11.09;100.00
76011;BME280;64701;43.536;1.478;2023-11-21T09:23:16;99649.63;;;11.10;100.00
76011;BME280;64701;43.536;1.478;2023-11-21T09:25:41;99650.44;;;11.10;100.00
76011;BME280;64701;43.536;1.478;2023-11-21T09:28:06;99657.56;;;11.10;100.00
76011;BME280;64701;43.536;1.478;2023-11-21T09:30:35;99651.91;;;11.13;100.00
76011;BME280;64701;43.536;1.478;2023-11-21T09:33:01;99653.75;;;11.12;100.00
76011;BME280;64701;43.536;1.478;2023-11-21T09:35:26;99660.88;;;11.12;100.00
76011;BME280;64701;43.536;1.478;2023-11-21T09:37:53;99659.41;;;11.09;100.00
76011;BME280;64701;43.536;1.478;2023-11-21T09:40:20;99661.88;;;11.11;100.00
76011;BME280;64701;43.536;1.478;2023-11-21T09:42:56;99663.50;;;11.12;100.00
76011;BME280;64701;43.536;1.478;2023-11-21T09:47:52;99671.94;;;11.22;100.00
76011;BME280;64701;43.536;1.478;2023-11-21T09:50:17;99677.88;;;11.24;100.00
76011;BME280;64701;43.536;1.478;2023-11-21T09:55:27;99675.88;;;11.26;100.00
76011;BME280;64701;43.536;1.478;2023-11-21T09:57:56;99666.88;;;11.27;100.00
76011;BME280;64701;43.536;1.478;2023-11-21T10:00:22;99669.34;;;11.28;100.00
76011;BME280;64701;43.536;1.478;2023-11-21T10:02:52;99666.50;;;11.30;100.00
76011;BME280;64701;43.536;1.478;2023-11-21T10:05:18;99667.53;;;11.29;100.00
76011;BME280;64701;43.536;1.478;2023-11-21T10:07:44;99670.22;;;11.35;100.00
76011;BME280;64701;43.536;1.478;2023-11-21T10:10:11;99668.22;;;11.37;100.00
76011;BME280;64701;43.536;1.478;2023-11-21T10:12:37;99674.75;;;11.41;100.00
76011;BME280;64701;43.536;1.478;2023-11-21T10:15:03;99676.00;;;11.45;100.00
76011;BME280;64701;43.536;1.478;2023-11-21T10:17:32;99675.41;;;11.50;100.00
76011;BME280;64701;43.536;1.478;2023-11-21T10:20:04;99683.41;;;11.57;100.00
76011;BME280;64701;43.536;1.478;2023-11-21T10:22:36;99673.25;;;11.60;100.00
76011;BME280;64701;43.536;1.478;2023-11-21T10:25:02;99681.81;;;11.62;100.00
76011;BME280;64701;43.536;1.478;2023-11-21T10:27:27;99682.44;;;11.64;100.00
76011;BME280;64701;43.536;1.478;2023-11-21T10:29:53;99676.13;;;11.65;100.00
76011;BME280;64701;43.536;1.478;2023-11-21T10:32:18;99678.97;;;11.64;100.00
76011;BME280;64701;43.536;1.478;2023-11-21T10:34:55;99672.03;;;11.63;100.00
76011;BME280;64701;43.536;1.478;2023-11-21T10:37:20;99672.47;;;11.66;100.00
76011;BME280;64701;43.536;1.478;2023-11-21T10:39:45;99673.09;;;11.68;100.00
76011;BME280;64701;43.536;1.478;2023-11-21T10:42:11;99665.94;;;11.69;100.00
76011;BME280;64701;43.536;1.478;2023-11-21T10:44:36;99661.16;;;11.79;100.00
76011;BME280;64701;43.536;1.478;2023-11-21T10:47:02;99667.47;;;11.78;100.00
76011;BME280;64701;43.536;1.478;2023-11-21T10:49:28;99668.06;;;11.73;100.00
76011;BME280;64701;43.536;1.478;2023-11-21T10:51:54;99670.13;;;11.78;100.00
76011;BME280;64701;43.536;1.478;2023-11-21T10:54:19;99675.38;;;11.71;100.00
76011;BME280;64701;43.536;1.478;2023-11-21T10:56:46;99667.66;;;11.76;100.00
76011;BME280;64701;43.536;1.478;2023-11-21T10:59:12;99669.69;;;11.74;100.00
76011;BME280;64701;43.536;1.478;2023-11-21T11:01:40;99668.31;;;11.78;100.00
76011;BME280;64701;43.536;1.478;2023-11-21T11:04:08;99657.69;;;11.78;100.00
76011;BME280;64701;43.536;1.478;2023-11-21T11:06:39;99656.69;;;11.79;100.00
76011;BME280;64701;43.536;1.478;2023-11-21T11:09:05;99661.34;;;11.77;100.00
76011;BME280;64701;43.536;1.478;2023-11-21T11:11:33;99658.94;;;11.82;100.00
76011;BME280;64701;43.536;1.478;2023-11-21T11:13:58;99655.91;;;11.85;100.00
76011;BME280;64701;43.536;1.478;2023-11-21T11:16:25;99649.16;;;11.90;100.00
76011;BME280;64701;43.536;1.478;2023-11-21T11:18:51;99653.47;;;11.91;100.00
76011;BME280;64701;43.536;1.478;2023-11-21T11:23:59;99651.38;;;11.86;100.00
76011;BME280;64701;43.536;1.478;2023-11-21T11:26:37;99652.66;;;11.90;100.00
76011;BME280;64701;43.536;1.478;2023-11-21T11:29:14;99656.72;;;11.93;100.00
76011;BME280;64701;43.536;1.478;2023-11-21T11:37:01;99658.19;;;11.95;100.00
76011;BME280;64701;43.536;1.478;2023-11-21T11:39:28;99665.31;;;11.95;100.00
76011;BME280;64701;43.536;1.478;2023-11-21T11:41:57;99663.91;;;11.99;100.00
76011;BME280;64701;43.536;1.478;2023-11-21T11:47:14;99653.28;;;11.99;100.00
76011;BME280;64701;43.536;1.478;2023-11-21T11:49:54;99653.94;;;12.07;100.00
76011;BME280;64701;43.536;1.478;2023-11-21T11:52:31;99648.66;;;12.14;100.00
76011;BME280;64701;43.536;1.478;2023-11-21T11:54:57;99646.25;;;12.25;100.00
76011;BME280;64701;43.536;1.478;2023-11-21T11:57:26;99638.09;;;12.34;100.00
76011;BME280;64701;43.536;1.478;2023-11-21T12:00:07;99634.66;;;12.46;100.00
76011;BME280;64701;43.536;1.478;2023-11-21T12:02:35;99635.94;;;12.57;100.00
76011;BME280;64701;43.536;1.478;2023-11-21T12:05:06;99632.84;;;12.60;100.00
76011;BME280;64701;43.536;1.478;2023-11-21T12:07:51;99628.78;;;12.71;100.00
76011;BME280;64701;43.536;1.478;2023-11-21T12:10:20;99630.25;;;12.80;100.00
76011;BME280;64701;43.536;1.478;2023-11-21T12:12:53;99624.28;;;12.71;100.00
76011;BME280;64701;43.536;1.478;2023-11-21T12:15:18;99630.25;;;12.80;100.00
76011;BME280;64701;43.536;1.478;2023-11-21T12:17:44;99618.34;;;12.76;100.00
76011;BME280;64701;43.536;1.478;2023-11-21T12:20:10;99615.50;;;12.84;100.00
76011;BME280;64701;43.536;1.478;2023-11-21T12:22:45;99626.34;;;12.89;100.00
76011;BME280;64701;43.536;1.478;2023-11-21T12:25:14;99627.59;;;12.93;100.00
76011;BME280;64701;43.536;1.478;2023-11-21T12:27:42;99633.50;;;12.95;100.00
76011;BME280;64701;43.536;1.478;2023-11-21T12:30:07;99631.03;;;13.00;100.00
76011;BME280;64701;43.536;1.478;2023-11-21T12:32:38;99627.16;;;12.89;100.00
76011;BME280;64701;43.536;1.478;2023-11-21T12:35:03;99633.94;;;12.92;100.00
76011;BME280;64701;43.536;1.478;2023-11-21T12:37:31;99631.06;;;12.87;100.00
76011;BME280;64701;43.536;1.478;2023-11-21T12:39:56;99626.53;;;12.87;100.00
76011;BME280;64701;43.536;1.478;2023-11-21T12:42:23;99623.09;;;12.80;100.00
76011;BME280;64701;43.536;1.478;2023-11-21T12:44:48;99628.38;;;12.74;100.00
76011;BME280;64701;43.536;1.478;2023-11-21T12:47:16;99631.22;;;12.65;100.00
76011;BME280;64701;43.536;1.478;2023-11-21T12:49:41;99637.34;;;12.59;100.00
76011;BME280;64701;43.536;1.478;2023-11-21T12:52:09;99639.63;;;12.62;100.00
76011;BME280;64701;43.536;1.478;2023-11-21T12:54:34;99634.69;;;12.59;100.00
76011;BME280;64701;43.536;1.478;2023-11-21T12:57:00;99650.81;;;12.51;100.00
76011;BME280;64701;43.536;1.478;2023-11-21T12:59:26;99642.25;;;12.56;100.00
76011;BME280;64701;43.536;1.478;2023-11-21T13:01:53;99639.00;;;12.60;100.00